createdAt,value
2019-05-26T00:00:29.515Z,93.76
2019-05-26T00:00:59.584Z,93.73
2019-05-26T00:01:31.173Z,93.74
2019-05-26T00:01:59.650Z,93.75
2019-05-26T00:02:29.516Z,93.74
2019-05-26T00:02:59.587Z,93.79
2019-05-26T00:03:29.517Z,93.78
2019-05-26T00:03:59.589Z,93.76
2019-05-26T00:04:33.266Z,93.75
2019-05-26T00:04:59.589Z,93.80
2019-05-26T00:05:29.519Z,93.79
2019-05-26T00:05:59.639Z,93.78
2019-05-26T00:06:29.526Z,93.85
2019-05-26T00:06:59.580Z,93.79
2019-05-26T00:07:31.528Z,93.77
2019-05-26T00:07:59.606Z,93.87
2019-05-26T00:08:29.532Z,93.81
2019-05-26T00:08:59.585Z,93.82
2019-05-26T00:09:29.525Z,93.82
2019-05-26T00:09:59.596Z,93.81
2019-05-26T00:10:29.535Z,93.82
2019-05-26T00:10:59.583Z,93.80
2019-05-26T00:11:29.532Z,93.77
2019-05-26T00:12:01.229Z,93.79
2019-05-26T00:12:29.527Z,93.80
2019-05-26T00:12:59.594Z,93.76
2019-05-26T00:13:29.518Z,93.72
2019-05-26T00:13:59.587Z,93.69
2019-05-26T00:14:29.524Z,93.68
2019-05-26T00:15:03.329Z,93.64
2019-05-26T00:15:29.523Z,93.64
2019-05-26T00:15:59.586Z,93.57
2019-05-26T00:16:29.516Z,93.60
2019-05-26T00:16:59.580Z,93.58
2019-05-26T00:17:29.533Z,93.63
2019-05-26T00:17:59.582Z,93.61
2019-05-26T00:18:33.350Z,93.64
2019-05-26T00:18:59.584Z,93.66
2019-05-26T00:19:29.525Z,93.66
2019-05-26T00:19:59.590Z,93.66
2019-05-26T00:20:29.528Z,93.69
2019-05-26T00:20:59.586Z,93.70
2019-05-26T00:21:29.526Z,93.70
2019-05-26T00:21:59.585Z,93.71
2019-05-26T00:22:31.096Z,93.67
2019-05-26T00:22:59.594Z,93.71
2019-05-26T00:23:29.547Z,93.71
2019-05-26T00:23:59.582Z,93.75
2019-05-26T00:24:29.528Z,93.77
2019-05-26T00:24:59.582Z,93.78
2019-05-26T00:25:33.250Z,93.77
2019-05-26T00:25:59.588Z,93.74
2019-05-26T00:26:29.547Z,93.68
2019-05-26T00:26:59.584Z,93.68
2019-05-26T00:27:29.522Z,93.60
2019-05-26T00:27:59.583Z,93.64
2019-05-26T00:28:29.528Z,93.58
2019-05-26T00:28:59.593Z,93.54
2019-05-26T00:29:29.527Z,93.56
2019-05-26T00:29:59.594Z,93.52
2019-05-26T00:30:29.524Z,93.51
2019-05-26T00:30:59.607Z,93.46
2019-05-26T00:31:29.529Z,93.41
2019-05-26T00:31:59.585Z,93.45
2019-05-26T00:32:29.527Z,93.44
2019-05-26T00:33:01.126Z,93.46
2019-05-26T00:33:29.534Z,93.51
2019-05-26T00:33:59.584Z,93.49
2019-05-26T00:34:29.530Z,93.53
2019-05-26T00:34:59.636Z,93.50
2019-05-26T00:35:29.540Z,93.57
2019-05-26T00:36:04.342Z,93.58
2019-05-26T00:36:29.539Z,93.58
2019-05-26T00:36:59.591Z,93.57
2019-05-26T00:37:29.533Z,93.61
2019-05-26T00:37:59.587Z,93.61
2019-05-26T00:38:29.528Z,93.59
2019-05-26T00:38:59.595Z,93.58
2019-05-26T00:39:29.530Z,93.59
2019-05-26T00:39:59.588Z,93.58
2019-05-26T00:40:29.539Z,93.55
2019-05-26T00:40:59.597Z,93.55
2019-05-26T00:41:29.538Z,93.60
2019-05-26T00:41:59.588Z,93.57
2019-05-26T00:42:29.532Z,93.55
2019-05-26T00:42:59.585Z,93.56
2019-05-26T00:43:31.176Z,93.55
2019-05-26T00:43:59.604Z,93.55
2019-05-26T00:44:29.530Z,93.54
2019-05-26T00:44:59.592Z,93.58
2019-05-26T00:45:29.616Z,93.60
2019-05-26T00:45:59.586Z,93.67
2019-05-26T00:46:34.293Z,93.66
2019-05-26T00:46:59.596Z,93.71
2019-05-26T00:47:29.539Z,93.71
2019-05-26T00:47:59.593Z,93.67
2019-05-26T00:48:29.536Z,93.70
2019-05-26T00:48:59.588Z,93.76
2019-05-26T00:49:29.526Z,93.74
2019-05-26T00:49:59.598Z,93.79
2019-05-26T00:50:29.584Z,93.77
2019-05-26T00:50:59.605Z,93.80
2019-05-26T00:51:29.558Z,93.79
2019-05-26T00:51:59.598Z,93.83
2019-05-26T00:52:29.533Z,93.82
2019-05-26T00:52:59.594Z,93.75
2019-05-26T00:53:29.537Z,93.76
2019-05-26T00:54:01.227Z,93.74
2019-05-26T00:54:29.532Z,93.73
2019-05-26T00:54:59.600Z,93.70
2019-05-26T00:55:29.556Z,93.60
2019-05-26T00:55:59.595Z,93.59
2019-05-26T00:56:29.549Z,93.53
2019-05-26T00:57:04.374Z,93.54
2019-05-26T00:57:29.536Z,93.50
2019-05-26T00:57:59.614Z,93.47
2019-05-26T00:58:29.536Z,93.48
2019-05-26T00:58:59.592Z,93.44
2019-05-26T00:59:29.534Z,93.45
2019-05-26T00:59:59.596Z,93.47
2019-05-26T01:00:29.536Z,93.43
2019-05-26T01:01:00.763Z,93.50
2019-05-26T01:01:29.536Z,93.48
2019-05-26T01:01:59.636Z,93.42
2019-05-26T01:02:29.532Z,93.42
2019-05-26T01:02:59.598Z,93.42
2019-05-26T01:03:29.529Z,93.39
2019-05-26T01:03:59.605Z,93.44
2019-05-26T01:04:31.283Z,93.40
2019-05-26T01:04:59.593Z,93.45
2019-05-26T01:05:29.532Z,93.47
2019-05-26T01:05:59.594Z,93.50
2019-05-26T01:06:29.536Z,93.55
2019-05-26T01:06:59.598Z,93.59
2019-05-26T01:07:34.290Z,93.59
2019-05-26T01:08:06.068Z,93.60
2019-05-26T01:08:29.542Z,93.59
2019-05-26T01:08:59.612Z,93.58
2019-05-26T01:09:29.537Z,93.61
2019-05-26T01:09:59.602Z,93.64
2019-05-26T01:10:29.628Z,93.67
2019-05-26T01:11:01.714Z,93.61
2019-05-26T01:11:29.540Z,93.64
2019-05-26T01:11:59.630Z,93.67
2019-05-26T01:12:29.612Z,93.71
2019-05-26T01:12:59.599Z,93.71
2019-05-26T01:13:29.536Z,93.71
2019-05-26T01:13:59.601Z,93.72
2019-05-26T01:14:29.585Z,93.78
2019-05-26T01:15:01.117Z,93.78
2019-05-26T01:15:29.542Z,93.78
2019-05-26T01:15:59.602Z,93.79
2019-05-26T01:16:29.541Z,93.78
2019-05-26T01:16:59.599Z,93.74
2019-05-26T01:17:29.538Z,93.73
2019-05-26T01:18:03.299Z,93.74
2019-05-26T01:18:29.533Z,93.76
2019-05-26T01:18:59.595Z,93.74
2019-05-26T01:19:29.548Z,93.76
2019-05-26T01:19:59.596Z,93.81
2019-05-26T01:20:29.536Z,93.81
2019-05-26T01:20:59.667Z,93.81
2019-05-26T01:21:29.541Z,93.86
2019-05-26T01:21:59.601Z,93.85
2019-05-26T01:22:29.544Z,93.85
2019-05-26T01:22:59.686Z,93.92
2019-05-26T01:23:29.544Z,93.91
2019-05-26T01:23:59.596Z,93.95
2019-05-26T01:24:29.545Z,93.94
2019-05-26T01:24:59.653Z,93.94
2019-05-26T01:25:31.157Z,93.99
2019-05-26T01:25:59.604Z,93.98
2019-05-26T01:26:29.541Z,94.04
2019-05-26T01:26:59.613Z,94.06
2019-05-26T01:27:29.548Z,94.06
2019-05-26T01:27:59.606Z,94.10
2019-05-26T01:28:33.263Z,94.14
2019-05-26T01:28:59.600Z,94.14
2019-05-26T01:29:29.543Z,94.16
2019-05-26T01:29:59.603Z,94.19
2019-05-26T01:30:29.549Z,94.20
2019-05-26T01:30:59.607Z,94.23
2019-05-26T01:31:29.540Z,94.24
2019-05-26T01:31:59.599Z,94.23
2019-05-26T01:32:29.542Z,94.24
2019-05-26T01:32:59.610Z,94.29
2019-05-26T01:33:29.545Z,94.28
2019-05-26T01:33:59.601Z,94.30
2019-05-26T01:34:29.547Z,94.33
2019-05-26T01:34:59.603Z,94.34
2019-05-26T01:35:29.546Z,94.36
2019-05-26T01:36:01.215Z,94.35
2019-05-26T01:36:29.555Z,94.34
2019-05-26T01:36:59.605Z,94.37
2019-05-26T01:37:29.626Z,94.42
2019-05-26T01:37:59.599Z,94.47
2019-05-26T01:38:29.545Z,94.52
2019-05-26T01:39:03.597Z,94.52
2019-05-26T01:39:29.605Z,94.54
2019-05-26T01:39:59.605Z,94.59
2019-05-26T01:40:29.555Z,94.56
2019-05-26T01:40:59.612Z,94.56
2019-05-26T01:41:29.609Z,94.52
2019-05-26T01:41:59.611Z,94.57
2019-05-26T01:42:29.549Z,94.58
2019-05-26T01:42:59.608Z,94.58
2019-05-26T01:43:29.549Z,94.56
2019-05-26T01:43:59.607Z,94.62
2019-05-26T01:44:29.551Z,94.59
2019-05-26T01:44:59.601Z,94.61
2019-05-26T01:45:29.549Z,94.65
2019-05-26T01:45:59.628Z,94.73
2019-05-26T01:46:31.277Z,94.75
2019-05-26T01:46:59.604Z,94.78
2019-05-26T01:47:29.546Z,94.86
2019-05-26T01:47:59.694Z,94.96
2019-05-26T01:48:29.547Z,94.98
2019-05-26T01:48:59.603Z,95.02
2019-05-26T01:49:35.301Z,95.08
2019-05-26T01:49:59.603Z,95.11
2019-05-26T01:50:29.543Z,95.12
2019-05-26T01:50:59.603Z,95.12
2019-05-26T01:51:29.548Z,95.10
2019-05-26T01:51:59.654Z,95.16
2019-05-26T01:52:29.549Z,95.14
2019-05-26T01:52:59.616Z,95.18
2019-05-26T01:53:29.547Z,95.19
2019-05-26T01:53:59.608Z,95.18
2019-05-26T01:54:29.562Z,95.20
2019-05-26T01:54:59.613Z,95.14
2019-05-26T01:55:29.551Z,95.11
2019-05-26T01:55:59.609Z,95.12
2019-05-26T01:56:29.549Z,95.12
2019-05-26T01:57:01.184Z,95.09
2019-05-26T01:57:29.554Z,95.03
2019-05-26T01:57:59.613Z,95.04
2019-05-26T01:58:29.553Z,95.05
2019-05-26T01:58:59.607Z,95.00
2019-05-26T01:59:29.575Z,94.96
2019-05-26T02:00:04.437Z,94.93
2019-05-26T02:00:29.561Z,94.90
2019-05-26T02:00:59.617Z,94.90
2019-05-26T02:01:29.552Z,94.87
2019-05-26T02:01:59.619Z,94.89
2019-05-26T02:02:29.651Z,94.81
2019-05-26T02:02:59.611Z,94.86
2019-05-26T02:03:29.554Z,94.84
2019-05-26T02:03:59.605Z,94.88
2019-05-26T02:04:29.703Z,94.85
2019-05-26T02:04:59.621Z,94.84
2019-05-26T02:05:29.549Z,94.83
2019-05-26T02:05:59.622Z,94.80
2019-05-26T02:06:29.553Z,94.82
2019-05-26T02:06:59.623Z,94.83
2019-05-26T02:07:31.276Z,94.79
2019-05-26T02:07:59.630Z,94.77
2019-05-26T02:08:39.076Z,94.72
2019-05-26T02:08:59.610Z,94.76
2019-05-26T02:09:30.555Z,94.76
2019-05-26T02:09:59.609Z,94.73
2019-05-26T02:10:33.439Z,94.75
2019-05-26T02:10:59.742Z,94.77
2019-05-26T02:11:29.555Z,94.74
2019-05-26T02:11:59.623Z,94.74
2019-05-26T02:12:29.561Z,94.73
2019-05-26T02:12:59.630Z,94.75
2019-05-26T02:13:29.563Z,94.74
2019-05-26T02:13:59.615Z,94.74
2019-05-26T02:14:29.555Z,94.75
2019-05-26T02:14:59.617Z,94.77
2019-05-26T02:15:29.563Z,94.77
2019-05-26T02:15:59.619Z,94.80
2019-05-26T02:16:29.556Z,94.82
2019-05-26T02:16:59.678Z,94.83
2019-05-26T02:17:29.555Z,94.80
2019-05-26T02:18:01.315Z,94.82
2019-05-26T02:18:29.566Z,94.82
2019-05-26T02:18:59.616Z,94.82
2019-05-26T02:19:29.551Z,94.85
2019-05-26T02:19:59.617Z,94.86
2019-05-26T02:20:29.556Z,94.83
2019-05-26T02:21:03.315Z,94.82
2019-05-26T02:21:29.563Z,94.78
2019-05-26T02:21:59.615Z,94.82
2019-05-26T02:22:29.565Z,94.82
2019-05-26T02:22:59.619Z,94.78
2019-05-26T02:23:29.561Z,94.78
2019-05-26T02:23:59.626Z,94.81
2019-05-26T02:24:29.560Z,94.83
2019-05-26T02:24:59.628Z,94.80
2019-05-26T02:25:29.558Z,94.86
2019-05-26T02:25:59.620Z,94.85
2019-05-26T02:26:29.557Z,94.85
2019-05-26T02:26:59.628Z,94.86
2019-05-26T02:27:29.570Z,94.84
2019-05-26T02:27:59.617Z,94.84
2019-05-26T02:28:31.270Z,94.87
2019-05-26T02:28:59.616Z,94.86
2019-05-26T02:29:29.677Z,94.89
2019-05-26T02:29:59.631Z,94.88
2019-05-26T02:30:29.564Z,94.85
2019-05-26T02:30:59.622Z,94.89
2019-05-26T02:31:33.277Z,94.88
2019-05-26T02:31:59.619Z,94.87
2019-05-26T02:32:29.557Z,94.92
2019-05-26T02:32:59.621Z,94.89
2019-05-26T02:33:29.563Z,94.92
2019-05-26T02:33:59.626Z,94.93
2019-05-26T02:34:29.560Z,94.90
2019-05-26T02:34:59.625Z,94.92
2019-05-26T02:35:29.557Z,94.95
2019-05-26T02:35:59.620Z,94.93
2019-05-26T02:36:29.559Z,94.95
2019-05-26T02:36:59.620Z,94.96
2019-05-26T02:37:29.555Z,94.96
2019-05-26T02:37:59.639Z,94.98
2019-05-26T02:38:29.567Z,95.03
2019-05-26T02:39:04.258Z,95.04
2019-05-26T02:39:29.563Z,95.03
2019-05-26T02:39:59.621Z,95.02
2019-05-26T02:40:29.561Z,95.03
2019-05-26T02:40:59.621Z,95.06
2019-05-26T02:41:29.560Z,95.05
2019-05-26T02:42:03.512Z,95.09
2019-05-26T02:42:29.567Z,95.12
2019-05-26T02:42:59.632Z,95.14
2019-05-26T02:43:29.562Z,95.18
2019-05-26T02:43:59.628Z,95.20
2019-05-26T02:44:29.566Z,95.21
2019-05-26T02:45:00.631Z,95.21
2019-05-26T02:45:29.566Z,95.24
2019-05-26T02:45:59.624Z,95.26
2019-05-26T02:46:29.561Z,95.24
2019-05-26T02:46:59.624Z,95.23
2019-05-26T02:47:29.575Z,95.23
2019-05-26T02:47:59.627Z,95.23
2019-05-26T02:48:29.570Z,95.20
2019-05-26T02:48:59.635Z,95.19
2019-05-26T02:49:31.184Z,95.18
2019-05-26T02:49:59.615Z,95.21
2019-05-26T02:50:29.565Z,95.16
2019-05-26T02:50:59.632Z,95.14
2019-05-26T02:51:29.558Z,95.07
2019-05-26T02:51:59.623Z,95.07
2019-05-26T02:52:34.358Z,95.07
2019-05-26T02:52:59.623Z,95.13
2019-05-26T02:53:29.571Z,95.06
2019-05-26T02:53:59.630Z,95.08
2019-05-26T02:54:29.565Z,95.05
2019-05-26T02:54:59.629Z,95.07
2019-05-26T02:55:29.567Z,95.06
2019-05-26T02:55:59.627Z,95.05
2019-05-26T02:56:29.604Z,95.07
2019-05-26T02:56:59.622Z,95.08
2019-05-26T02:57:29.565Z,95.07
2019-05-26T02:57:59.628Z,95.09
2019-05-26T02:58:29.647Z,95.09
2019-05-26T02:58:59.630Z,95.07
2019-05-26T02:59:29.566Z,95.10
2019-05-26T03:00:01.185Z,95.08
2019-05-26T03:00:29.571Z,95.09
2019-05-26T03:00:59.629Z,95.07
2019-05-26T03:01:29.574Z,95.04
2019-05-26T03:02:04.063Z,95.05
2019-05-26T03:02:29.571Z,95.03
2019-05-26T03:03:03.286Z,95.05
2019-05-26T03:03:29.685Z,95.02
2019-05-26T03:03:59.640Z,95.01
2019-05-26T03:04:29.568Z,94.92
2019-05-26T03:04:59.623Z,94.94
2019-05-26T03:05:29.569Z,94.93
2019-05-26T03:05:59.632Z,94.96
2019-05-26T03:06:29.569Z,94.94
2019-05-26T03:06:59.633Z,94.94
2019-05-26T03:07:29.564Z,94.96
2019-05-26T03:07:59.632Z,95.02
2019-05-26T03:08:29.562Z,94.97
2019-05-26T03:09:18.518Z,95.05
2019-05-26T03:09:29.570Z,95.02
2019-05-26T03:09:59.633Z,95.02
2019-05-26T03:10:31.081Z,94.99
2019-05-26T03:10:59.627Z,94.99
2019-05-26T03:11:29.572Z,95.00
2019-05-26T03:11:59.630Z,94.94
2019-05-26T03:12:29.576Z,94.94
2019-05-26T03:12:59.633Z,94.93
2019-05-26T03:13:33.357Z,94.94
2019-05-26T03:13:59.630Z,94.94
2019-05-26T03:14:29.572Z,94.91
2019-05-26T03:14:59.640Z,94.90
2019-05-26T03:15:29.570Z,94.88
2019-05-26T03:15:59.644Z,94.89
2019-05-26T03:16:29.593Z,94.85
2019-05-26T03:16:59.629Z,94.88
2019-05-26T03:17:29.565Z,94.87
2019-05-26T03:17:59.638Z,94.87
2019-05-26T03:18:29.578Z,94.85
2019-05-26T03:18:59.645Z,94.88
2019-05-26T03:19:29.591Z,94.85
2019-05-26T03:19:59.638Z,94.87
2019-05-26T03:20:29.573Z,94.86
2019-05-26T03:21:01.147Z,94.83
2019-05-26T03:21:29.704Z,94.82
2019-05-26T03:21:59.646Z,94.81
2019-05-26T03:22:29.568Z,94.82
2019-05-26T03:22:59.633Z,94.87
2019-05-26T03:23:29.639Z,94.83
2019-05-26T03:24:03.802Z,94.83
2019-05-26T03:24:29.586Z,94.83
2019-05-26T03:24:59.640Z,94.82
2019-05-26T03:25:29.595Z,94.82
2019-05-26T03:25:59.631Z,94.83
2019-05-26T03:26:29.583Z,94.81
2019-05-26T03:26:59.630Z,94.79
2019-05-26T03:27:29.598Z,94.75
2019-05-26T03:27:59.716Z,94.79
2019-05-26T03:28:29.579Z,94.81
2019-05-26T03:28:59.641Z,94.80
2019-05-26T03:29:29.573Z,94.81
2019-05-26T03:29:59.636Z,94.80
2019-05-26T03:30:29.577Z,94.81
2019-05-26T03:30:59.637Z,94.79
2019-05-26T03:31:31.113Z,94.78
2019-05-26T03:31:59.850Z,94.77
2019-05-26T03:32:29.572Z,94.77
2019-05-26T03:32:59.808Z,94.79
2019-05-26T03:33:30.578Z,94.82
2019-05-26T03:33:59.698Z,94.78
2019-05-26T03:34:34.335Z,94.82
2019-05-26T03:34:59.650Z,94.77
2019-05-26T03:35:29.571Z,94.74
2019-05-26T03:35:59.770Z,94.78
2019-05-26T03:36:29.576Z,94.77
2019-05-26T03:36:59.645Z,94.78
2019-05-26T03:37:29.573Z,94.76
2019-05-26T03:37:59.632Z,94.72
2019-05-26T03:38:29.571Z,94.74
2019-05-26T03:38:59.633Z,94.73
2019-05-26T03:39:44.119Z,94.72
2019-05-26T03:39:59.636Z,94.72
2019-05-26T03:40:29.577Z,94.69
2019-05-26T03:40:59.645Z,94.65
2019-05-26T03:41:29.583Z,94.68
2019-05-26T03:42:01.135Z,94.73
2019-05-26T03:42:29.590Z,94.69
2019-05-26T03:42:59.635Z,94.66
2019-05-26T03:43:29.574Z,94.70
2019-05-26T03:43:59.657Z,94.70
2019-05-26T03:44:29.577Z,94.70
2019-05-26T03:45:03.193Z,94.69
2019-05-26T03:45:29.696Z,94.67
2019-05-26T03:45:59.642Z,94.69
2019-05-26T03:46:29.678Z,94.63
2019-05-26T03:46:59.644Z,94.62
2019-05-26T03:47:29.572Z,94.62
2019-05-26T03:47:59.646Z,94.55
2019-05-26T03:48:29.599Z,94.47
2019-05-26T03:48:59.651Z,94.45
2019-05-26T03:49:29.589Z,94.45
2019-05-26T03:49:59.673Z,94.53
2019-05-26T03:50:29.577Z,94.50
2019-05-26T03:50:59.636Z,94.46
2019-05-26T03:51:29.575Z,94.51
2019-05-26T03:51:59.645Z,94.52
2019-05-26T03:52:31.222Z,94.53
2019-05-26T03:52:59.642Z,94.53
2019-05-26T03:53:29.576Z,94.54
2019-05-26T03:53:59.638Z,94.57
2019-05-26T03:54:29.573Z,94.56
2019-05-26T03:54:59.755Z,94.59
2019-05-26T03:55:33.148Z,94.56
2019-05-26T03:55:59.638Z,94.59
2019-05-26T03:56:29.584Z,94.56
2019-05-26T03:56:59.636Z,94.51
2019-05-26T03:57:29.587Z,94.48
2019-05-26T03:57:59.640Z,94.50
2019-05-26T03:58:29.585Z,94.47
2019-05-26T03:58:59.637Z,94.47
2019-05-26T03:59:29.589Z,94.47
2019-05-26T03:59:59.643Z,94.45
2019-05-26T04:00:29.604Z,94.44
2019-05-26T04:00:59.772Z,94.42
2019-05-26T04:01:29.589Z,94.49
2019-05-26T04:01:59.641Z,94.44
2019-05-26T04:02:29.585Z,94.45
2019-05-26T04:03:01.180Z,94.43
2019-05-26T04:03:29.584Z,94.45
2019-05-26T04:03:59.651Z,94.45
2019-05-26T04:04:29.602Z,94.44
2019-05-26T04:04:59.649Z,94.45
2019-05-26T04:05:29.585Z,94.42
2019-05-26T04:06:03.264Z,94.42
2019-05-26T04:06:29.615Z,94.44
2019-05-26T04:06:59.654Z,94.47
2019-05-26T04:07:29.580Z,94.49
2019-05-26T04:08:04.621Z,94.53
2019-05-26T04:08:29.595Z,94.55
2019-05-26T04:08:59.647Z,94.54
2019-05-26T04:09:29.591Z,94.55
2019-05-26T04:10:04.982Z,94.58
2019-05-26T04:10:29.585Z,94.49
2019-05-26T04:10:59.656Z,94.43
2019-05-26T04:11:29.591Z,94.46
2019-05-26T04:11:59.652Z,94.44
2019-05-26T04:12:29.585Z,94.48
2019-05-26T04:12:59.642Z,94.47
2019-05-26T04:13:31.116Z,94.50
2019-05-26T04:13:59.664Z,94.54
2019-05-26T04:14:29.593Z,94.49
2019-05-26T04:14:59.654Z,94.49
2019-05-26T04:15:29.661Z,94.52
2019-05-26T04:15:59.648Z,94.49
2019-05-26T04:16:33.286Z,94.46
2019-05-26T04:16:59.659Z,94.41
2019-05-26T04:17:29.612Z,94.37
2019-05-26T04:17:59.649Z,94.38
2019-05-26T04:18:29.594Z,94.37
2019-05-26T04:18:59.654Z,94.37
2019-05-26T04:19:29.587Z,94.38
2019-05-26T04:19:59.651Z,94.34
2019-05-26T04:20:29.587Z,94.36
2019-05-26T04:20:59.655Z,94.35
2019-05-26T04:21:29.589Z,94.37
2019-05-26T04:21:59.657Z,94.35
2019-05-26T04:22:29.583Z,94.33
2019-05-26T04:22:59.670Z,94.33
2019-05-26T04:23:29.611Z,94.30
2019-05-26T04:24:01.146Z,94.28
2019-05-26T04:24:29.583Z,94.27
2019-05-26T04:24:59.657Z,94.30
2019-05-26T04:25:29.592Z,94.33
2019-05-26T04:25:59.700Z,94.34
2019-05-26T04:26:29.594Z,94.40
2019-05-26T04:27:03.262Z,94.44
2019-05-26T04:27:29.602Z,94.44
2019-05-26T04:27:59.671Z,94.47
2019-05-26T04:28:29.595Z,94.55
2019-05-26T04:28:59.655Z,94.53
2019-05-26T04:29:29.587Z,94.55
2019-05-26T04:29:59.651Z,94.57
2019-05-26T04:30:29.591Z,94.61
2019-05-26T04:30:59.655Z,94.66
2019-05-26T04:31:29.607Z,94.67
2019-05-26T04:32:02.170Z,94.63
2019-05-26T04:32:29.595Z,94.52
2019-05-26T04:32:59.651Z,94.45
2019-05-26T04:33:29.706Z,94.43
2019-05-26T04:33:59.649Z,94.43
2019-05-26T04:34:31.115Z,94.40
2019-05-26T04:34:59.665Z,94.37
2019-05-26T04:35:29.600Z,94.30
2019-05-26T04:35:59.653Z,94.35
2019-05-26T04:36:29.703Z,94.40
2019-05-26T04:36:59.660Z,94.47
2019-05-26T04:37:33.316Z,94.44
2019-05-26T04:37:59.652Z,94.45
2019-05-26T04:38:29.680Z,94.45
2019-05-26T04:38:59.642Z,94.48
2019-05-26T04:39:29.587Z,94.55
2019-05-26T04:39:59.653Z,94.57
2019-05-26T04:40:29.591Z,94.61
2019-05-26T04:40:59.658Z,94.63
2019-05-26T04:41:29.661Z,94.66
2019-05-26T04:41:59.649Z,94.70
2019-05-26T04:42:29.600Z,94.74
2019-05-26T04:42:59.649Z,94.74
2019-05-26T04:43:29.593Z,94.78
2019-05-26T04:44:00.666Z,94.86
2019-05-26T04:44:29.612Z,94.88
2019-05-26T04:45:01.169Z,94.88
2019-05-26T04:45:29.596Z,94.91
2019-05-26T04:45:59.663Z,94.92
2019-05-26T04:46:29.600Z,94.93
2019-05-26T04:46:59.797Z,94.99
2019-05-26T04:47:29.596Z,95.00
2019-05-26T04:48:03.277Z,95.00
2019-05-26T04:48:29.607Z,95.01
2019-05-26T04:48:59.724Z,95.08
2019-05-26T04:49:29.593Z,95.10
2019-05-26T04:49:59.658Z,95.08
2019-05-26T04:50:29.598Z,95.10
2019-05-26T04:50:59.740Z,95.04
2019-05-26T04:51:29.601Z,95.11
2019-05-26T04:51:59.657Z,95.11
2019-05-26T04:52:29.597Z,95.08
2019-05-26T04:53:06.467Z,95.04
2019-05-26T04:53:29.592Z,95.00
2019-05-26T04:53:59.660Z,95.04
2019-05-26T04:54:29.591Z,95.04
2019-05-26T04:54:59.681Z,95.06
2019-05-26T04:55:31.240Z,95.01
2019-05-26T04:55:59.651Z,95.04
2019-05-26T04:56:29.595Z,95.09
2019-05-26T04:56:59.651Z,95.04
2019-05-26T04:57:29.594Z,95.10
2019-05-26T04:57:59.657Z,95.11
2019-05-26T04:58:34.370Z,95.13
2019-05-26T04:58:59.654Z,95.14
2019-05-26T04:59:29.598Z,95.08
2019-05-26T04:59:59.651Z,95.04
2019-05-26T05:00:29.594Z,95.07
2019-05-26T05:00:59.664Z,95.02
2019-05-26T05:01:29.603Z,95.04
2019-05-26T05:01:59.665Z,95.09
2019-05-26T05:02:29.597Z,95.09
2019-05-26T05:02:59.660Z,95.13
2019-05-26T05:03:29.731Z,95.16
2019-05-26T05:03:59.659Z,95.12
2019-05-26T05:04:29.608Z,95.13
2019-05-26T05:04:59.651Z,95.15
2019-05-26T05:05:29.599Z,95.09
2019-05-26T05:06:01.143Z,95.12
2019-05-26T05:06:29.601Z,95.08
2019-05-26T05:06:59.658Z,95.12
2019-05-26T05:07:29.610Z,95.09
2019-05-26T05:07:59.673Z,95.07
2019-05-26T05:08:29.593Z,95.08
2019-05-26T05:09:03.404Z,95.11
2019-05-26T05:09:29.635Z,95.07
2019-05-26T05:09:59.655Z,95.07
2019-05-26T05:10:41.615Z,95.11
2019-05-26T05:10:59.660Z,95.16
2019-05-26T05:11:29.599Z,95.12
2019-05-26T05:11:59.663Z,95.15
2019-05-26T05:12:29.599Z,95.16
2019-05-26T05:12:59.662Z,95.14
2019-05-26T05:13:29.600Z,95.09
2019-05-26T05:13:59.709Z,95.11
2019-05-26T05:14:29.597Z,95.17
2019-05-26T05:14:59.655Z,95.17
2019-05-26T05:15:29.597Z,95.15
2019-05-26T05:15:59.750Z,95.19
2019-05-26T05:16:31.104Z,95.18
2019-05-26T05:16:59.668Z,95.21
2019-05-26T05:17:29.606Z,95.24
2019-05-26T05:17:59.748Z,95.25
2019-05-26T05:18:29.603Z,95.28
2019-05-26T05:18:59.692Z,95.30
2019-05-26T05:19:34.331Z,95.25
2019-05-26T05:19:59.663Z,95.30
2019-05-26T05:20:29.600Z,95.28
2019-05-26T05:20:59.663Z,95.34
2019-05-26T05:21:29.605Z,95.36
2019-05-26T05:21:59.660Z,95.46
2019-05-26T05:22:29.604Z,95.38
2019-05-26T05:22:59.671Z,95.34
2019-05-26T05:23:29.619Z,95.34
2019-05-26T05:23:59.671Z,95.38
2019-05-26T05:24:29.601Z,95.37
2019-05-26T05:24:59.669Z,95.40
2019-05-26T05:25:29.596Z,95.38
2019-05-26T05:25:59.656Z,95.32
2019-05-26T05:26:29.603Z,95.31
2019-05-26T05:27:01.200Z,95.32
2019-05-26T05:27:29.602Z,95.36
2019-05-26T05:27:59.664Z,95.41
2019-05-26T05:28:29.768Z,95.34
2019-05-26T05:28:59.902Z,95.28
2019-05-26T05:29:29.601Z,95.25
2019-05-26T05:30:03.412Z,95.25
2019-05-26T05:30:29.652Z,95.27
2019-05-26T05:30:59.666Z,95.23
2019-05-26T05:31:29.612Z,95.21
2019-05-26T05:31:59.668Z,95.16
2019-05-26T05:32:32.927Z,95.16
2019-05-26T05:32:59.686Z,95.15
2019-05-26T05:33:29.604Z,95.12
2019-05-26T05:33:59.664Z,95.06
2019-05-26T05:34:29.683Z,95.04
2019-05-26T05:34:59.674Z,95.07
2019-05-26T05:35:29.614Z,95.07
2019-05-26T05:35:59.663Z,95.03
2019-05-26T05:36:29.611Z,94.96
2019-05-26T05:36:59.664Z,94.91
2019-05-26T05:37:31.177Z,94.92
2019-05-26T05:37:59.687Z,94.98
2019-05-26T05:38:29.618Z,95.04
2019-05-26T05:38:59.670Z,95.02
2019-05-26T05:39:29.606Z,95.03
2019-05-26T05:39:59.665Z,95.08
2019-05-26T05:40:33.321Z,95.02
2019-05-26T05:41:00.740Z,94.96
2019-05-26T05:41:29.606Z,94.94
2019-05-26T05:41:59.664Z,94.97
2019-05-26T05:42:29.602Z,95.01
2019-05-26T05:42:59.679Z,95.01
2019-05-26T05:43:29.606Z,94.89
2019-05-26T05:43:59.674Z,94.87
2019-05-26T05:44:29.603Z,94.86
2019-05-26T05:44:59.702Z,94.89
2019-05-26T05:45:29.612Z,94.85
2019-05-26T05:45:59.661Z,94.81
2019-05-26T05:46:29.616Z,94.82
2019-05-26T05:46:59.672Z,94.82
2019-05-26T05:47:29.614Z,94.80
2019-05-26T05:48:01.229Z,94.77
2019-05-26T05:48:29.614Z,94.68
2019-05-26T05:48:59.669Z,94.65
2019-05-26T05:49:29.613Z,94.61
2019-05-26T05:50:00.671Z,94.68
2019-05-26T05:50:29.612Z,94.67
2019-05-26T05:51:03.283Z,94.66
2019-05-26T05:51:29.622Z,94.60
2019-05-26T05:51:59.753Z,94.56
2019-05-26T05:52:29.610Z,94.51
2019-05-26T05:52:59.682Z,94.42
2019-05-26T05:53:29.608Z,94.40
2019-05-26T05:53:59.675Z,94.42
2019-05-26T05:54:29.614Z,94.32
2019-05-26T05:54:59.693Z,94.20
2019-05-26T05:55:29.919Z,94.15
2019-05-26T05:55:59.679Z,94.13
2019-05-26T05:56:29.616Z,94.05
2019-05-26T05:56:59.670Z,93.97
2019-05-26T05:57:29.727Z,93.97
2019-05-26T05:57:59.673Z,93.90
2019-05-26T05:58:31.098Z,93.83
2019-05-26T05:58:59.672Z,93.75
2019-05-26T05:59:29.672Z,93.77
2019-05-26T05:59:59.673Z,93.84
2019-05-26T06:00:29.619Z,93.92
2019-05-26T06:00:59.671Z,93.80
2019-05-26T06:01:34.348Z,93.79
2019-05-26T06:01:59.668Z,93.67
2019-05-26T06:02:29.613Z,93.57
2019-05-26T06:02:59.673Z,93.48
2019-05-26T06:03:29.614Z,93.47
2019-05-26T06:03:59.673Z,93.45
2019-05-26T06:04:29.616Z,93.44
2019-05-26T06:04:59.672Z,93.43
2019-05-26T06:05:29.625Z,93.36
2019-05-26T06:05:59.773Z,93.29
2019-05-26T06:06:29.606Z,93.28
2019-05-26T06:06:59.673Z,93.18
2019-05-26T06:07:29.612Z,93.22
2019-05-26T06:07:59.764Z,93.20
2019-05-26T06:08:29.626Z,93.16
2019-05-26T06:09:01.228Z,93.06
2019-05-26T06:09:29.617Z,92.96
2019-05-26T06:09:59.679Z,92.88
2019-05-26T06:10:29.662Z,92.86
2019-05-26T06:11:15.211Z,92.81
2019-05-26T06:11:29.609Z,92.76
2019-05-26T06:12:03.311Z,92.64
2019-05-26T06:12:29.718Z,92.45
2019-05-26T06:12:59.673Z,92.36
2019-05-26T06:13:29.620Z,92.34
2019-05-26T06:13:59.672Z,92.36
2019-05-26T06:14:29.616Z,92.46
2019-05-26T06:14:59.681Z,92.47
2019-05-26T06:15:29.615Z,92.47
2019-05-26T06:15:59.672Z,92.30
2019-05-26T06:16:29.623Z,92.08
2019-05-26T06:16:59.674Z,92.07
2019-05-26T06:17:29.791Z,92.04
2019-05-26T06:17:59.679Z,91.96
2019-05-26T06:18:29.618Z,91.98
2019-05-26T06:18:59.684Z,92.18
2019-05-26T06:19:31.130Z,92.21
2019-05-26T06:19:59.678Z,92.24
2019-05-26T06:20:29.628Z,92.12
2019-05-26T06:20:59.677Z,92.08
2019-05-26T06:21:29.619Z,92.09
2019-05-26T06:21:59.672Z,92.10
2019-05-26T06:22:33.312Z,91.95
2019-05-26T06:22:59.696Z,91.91
2019-05-26T06:23:29.690Z,91.70
2019-05-26T06:23:59.684Z,91.53
2019-05-26T06:24:29.722Z,91.32
2019-05-26T06:24:59.680Z,91.39
2019-05-26T06:25:29.619Z,91.37
2019-05-26T06:25:59.678Z,91.16
2019-05-26T06:26:29.662Z,91.09